sensor_id;sensor_type;location;lat;lon;timestamp;pressure;altitude;pressure_sealevel;temperature;humidity
3206;BME280;1615;53.602;11.418;2023-11-22T00:02:23;102367.13;;;5.28;100.00
3206;BME280;1615;53.602;11.418;2023-11-22T00:04:53;102386.28;;;5.40;100.00
3206;BME280;1615;53.602;11.418;2023-11-22T00:07:18;102389.63;;;5.42;100.00
3206;BME280;1615;53.602;11.418;2023-11-22T00:09:43;102363.84;;;5.20;100.00
3206;BME280;1615;53.602;11.418;2023-11-22T00:12:08;102422.19;;;5.55;100.00
3206;BME280;1615;53.602;11.418;2023-11-22T00:14:34;102416.78;;;5.48;100.00
3206;BME280;1615;53.602;11.418;2023-11-22T00:17:00;102418.47;;;5.43;100.00
3206;BME280;1615;53.602;11.418;2023-11-22T00:19:26;102416.31;;;5.51;100.00
3206;BME280;1615;53.602;11.418;2023-11-22T00:21:52;102433.97;;;5.42;100.00
3206;BME280;1615;53.602;11.418;2023-11-22T00:24:17;102377.63;;;5.18;100.00
3206;BME280;1615;53.602;11.418;2023-11-22T00:26:43;102444.84;;;5.42;100.00
3206;BME280;1615;53.602;11.418;2023-11-22T00:29:09;102400.31;;;5.37;100.00
3206;BME280;1615;53.602;11.418;2023-11-22T00:31:34;102379.72;;;5.23;100.00
3206;BME280;1615;53.602;11.418;2023-11-22T00:33:59;102441.78;;;5.63;100.00
3206;BME280;1615;53.602;11.418;2023-11-22T00:36:25;102314.28;;;4.87;100.00
3206;BME280;1615;53.602;11.418;2023-11-22T00:38:50;102354.44;;;5.16;100.00
3206;BME280;1615;53.602;11.418;2023-11-22T00:41:15;102299.75;;;4.75;100.00
3206;BME280;1615;53.602;11.418;2023-11-22T00:43:41;102444.06;;;5.66;100.00
3206;BME280;1615;53.602;11.418;2023-11-22T00:46:06;102343.84;;;5.08;100.00
3206;BME280;1615;53.602;11.418;2023-11-22T00:48:32;102413.84;;;5.50;100.00
3206;BME280;1615;53.602;11.418;2023-11-22T00:50:57;102441.72;;;5.70;100.00
3206;BME280;1615;53.602;11.418;2023-11-22T00:53:23;102431.50;;;5.65;100.00
3206;BME280;1615;53.602;11.418;2023-11-22T00:55:48;102446.72;;;5.73;100.00
3206;BME280;1615;53.602;11.418;2023-11-22T00:58:14;102385.44;;;5.39;100.00
3206;BME280;1615;53.602;11.418;2023-11-22T01:00:39;102447.16;;;5.70;100.00
3206;BME280;1615;53.602;11.418;2023-11-22T01:03:04;102434.00;;;5.67;100.00
3206;BME280;1615;53.602;11.418;2023-11-22T01:05:30;102441.28;;;5.73;100.00
3206;BME280;1615;53.602;11.418;2023-11-22T01:07:55;102439.84;;;5.70;100.00
3206;BME280;1615;53.602;11.418;2023-11-22T01:10:21;102447.16;;;5.70;100.00
3206;BME280;1615;53.602;11.418;2023-11-22T01:12:46;102447.22;;;5.63;100.00
3206;BME280;1615;53.602;11.418;2023-11-22T01:15:11;102167.78;;;3.86;100.00
3206;BME280;1615;53.602;11.418;2023-11-22T01:17:37;102407.72;;;5.23;100.00
3206;BME280;1615;53.602;11.418;2023-11-22T01:20:02;102467.22;;;5.44;100.00
3206;BME280;1615;53.602;11.418;2023-11-22T01:22:28;102438.72;;;5.16;100.00
3206;BME280;1615;53.602;11.418;2023-11-22T01:24:54;102441.19;;;5.24;100.00
3206;BME280;1615;53.602;11.418;2023-11-22T01:27:19;102293.66;;;4.35;100.00
3206;BME280;1615;53.602;11.418;2023-11-22T01:29:45;102410.38;;;4.99;100.00
3206;BME280;1615;53.602;11.418;2023-11-22T01:32:10;102449.13;;;5.25;100.00
3206;BME280;1615;53.602;11.418;2023-11-22T01:34:36;102461.09;;;5.18;100.00
3206;BME280;1615;53.602;11.418;2023-11-22T01:37:01;102354.59;;;4.46;100.00
3206;BME280;1615;53.602;11.418;2023-11-22T01:39:26;102250.44;;;3.77;100.00
3206;BME280;1615;53.602;11.418;2023-11-22T01:41:52;102488.28;;;5.18;100.00
3206;BME280;1615;53.602;11.418;2023-11-22T01:44:17;102444.69;;;4.93;100.00
3206;BME280;1615;53.602;11.418;2023-11-22T01:46:46;102493.25;;;5.27;100.00
3206;BME280;1615;53.602;11.418;2023-11-22T01:49:11;102490.25;;;5.35;100.00
3206;BME280;1615;53.602;11.418;2023-11-22T01:51:40;102458.50;;;5.29;100.00
3206;BME280;1615;53.602;11.418;2023-11-22T01:54:07;102472.34;;;5.59;100.00
3206;BME280;1615;53.602;11.418;2023-11-22T01:56:35;102415.16;;;5.41;100.00
3206;BME280;1615;53.602;11.418;2023-11-22T01:59:02;102484.81;;;5.73;100.00
3206;BME280;1615;53.602;11.418;2023-11-22T02:01:28;102444.44;;;5.70;100.00
3206;BME280;1615;53.602;11.418;2023-11-22T02:03:54;102460.50;;;5.78;100.00
3206;BME280;1615;53.602;11.418;2023-11-22T02:06:20;102470.50;;;5.90;100.00
3206;BME280;1615;53.602;11.418;2023-11-22T02:08:49;102466.69;;;5.98;100.00
3206;BME280;1615;53.602;11.418;2023-11-22T02:11:17;102394.91;;;5.61;100.00
3206;BME280;1615;53.602;11.418;2023-11-22T02:13:48;102459.88;;;6.07;100.00
3206;BME280;1615;53.602;11.418;2023-11-22T02:16:13;102464.84;;;6.16;100.00
3206;BME280;1615;53.602;11.418;2023-11-22T02:18:39;102453.84;;;6.05;100.00
3206;BME280;1615;53.602;11.418;2023-11-22T02:21:05;102475.81;;;6.28;100.00
3206;BME280;1615;53.602;11.418;2023-11-22T02:23:31;102473.25;;;6.33;100.00
3206;BME280;1615;53.602;11.418;2023-11-22T02:25:57;102429.34;;;6.05;100.00
3206;BME280;1615;53.602;11.418;2023-11-22T02:28:23;102492.66;;;6.43;100.00
3206;BME280;1615;53.602;11.418;2023-11-22T02:30:49;102368.50;;;5.68;100.00
3206;BME280;1615;53.602;11.418;2023-11-22T02:33:14;102486.84;;;6.39;98.86
3206;BME280;1615;53.602;11.418;2023-11-22T02:35:39;102491.50;;;6.32;96.96
3206;BME280;1615;53.602;11.418;2023-11-22T02:38:06;102401.47;;;5.78;96.81
3206;BME280;1615;53.602;11.418;2023-11-22T02:40:31;102493.59;;;6.30;96.13
3206;BME280;1615;53.602;11.418;2023-11-22T02:42:57;102422.78;;;5.88;97.20
3206;BME280;1615;53.602;11.418;2023-11-22T02:45:27;102497.94;;;6.38;98.56
3206;BME280;1615;53.602;11.418;2023-11-22T02:47:53;102509.06;;;6.36;97.87
3206;BME280;1615;53.602;11.418;2023-11-22T02:50:19;102440.81;;;6.07;96.67
3206;BME280;1615;53.602;11.418;2023-11-22T02:52:44;102501.00;;;6.48;96.71
3206;BME280;1615;53.602;11.418;2023-11-22T02:55:10;102460.59;;;6.20;94.79
3206;BME280;1615;53.602;11.418;2023-11-22T02:57:39;102518.94;;;6.55;94.55
3206;BME280;1615;53.602;11.418;2023-11-22T03:00:08;102466.00;;;6.27;92.05
3206;BME280;1615;53.602;11.418;2023-11-22T03:02:34;102475.81;;;6.28;91.62
3206;BME280;1615;53.602;11.418;2023-11-22T03:04:59;102520.63;;;6.56;90.46
3206;BME280;1615;53.602;11.418;2023-11-22T03:07:26;102525.00;;;6.57;90.20
3206;BME280;1615;53.602;11.418;2023-11-22T03:09:51;102557.09;;;6.55;90.06
3206;BME280;1615;53.602;11.418;2023-11-22T03:12:18;102527.06;;;6.62;90.99
3206;BME280;1615;53.602;11.418;2023-11-22T03:14:45;102505.31;;;6.55;90.83
3206;BME280;1615;53.602;11.418;2023-11-22T03:17:10;102505.16;;;6.50;90.48
3206;BME280;1615;53.602;11.418;2023-11-22T03:19:36;102528.72;;;6.63;91.14
3206;BME280;1615;53.602;11.418;2023-11-22T03:22:01;102521.63;;;6.62;89.37
3206;BME280;1615;53.602;11.418;2023-11-22T03:24:29;102526.00;;;6.63;88.84
3206;BME280;1615;53.602;11.418;2023-11-22T03:26:55;102523.38;;;6.50;89.71
3206;BME280;1615;53.602;11.418;2023-11-22T03:29:24;102408.28;;;5.63;90.80
3206;BME280;1615;53.602;11.418;2023-11-22T03:31:49;102505.13;;;6.08;90.60
3206;BME280;1615;53.602;11.418;2023-11-22T03:34:15;102525.13;;;6.20;91.81
3206;BME280;1615;53.602;11.418;2023-11-22T03:36:40;102523.56;;;6.06;92.23
3206;BME280;1615;53.602;11.418;2023-11-22T03:39:06;102506.16;;;5.76;93.17
3206;BME280;1615;53.602;11.418;2023-11-22T03:41:31;102505.56;;;5.67;94.12
3206;BME280;1615;53.602;11.418;2023-11-22T03:43:56;102534.69;;;5.67;95.20
3206;BME280;1615;53.602;11.418;2023-11-22T03:46:22;102520.44;;;5.65;95.02
3206;BME280;1615;53.602;11.418;2023-11-22T03:48:47;102559.09;;;5.80;94.63
3206;BME280;1615;53.602;11.418;2023-11-22T03:51:12;102558.09;;;5.74;95.42
3206;BME280;1615;53.602;11.418;2023-11-22T03:53:38;102536.75;;;5.65;95.73
3206;BME280;1615;53.602;11.418;2023-11-22T03:56:03;102548.88;;;5.69;95.98
3206;BME280;1615;53.602;11.418;2023-11-22T03:58:28;102569.19;;;5.73;95.80
3206;BME280;1615;53.602;11.418;2023-11-22T04:00:54;102553.09;;;5.65;95.64
3206;BME280;1615;53.602;11.418;2023-11-22T04:03:20;102571.06;;;5.72;95.74
3206;BME280;1615;53.602;11.418;2023-11-22T04:05:45;102558.09;;;5.68;96.09
3206;BME280;1615;53.602;11.418;2023-11-22T04:08:11;102563.75;;;5.66;95.55
3206;BME280;1615;53.602;11.418;2023-11-22T04:10:36;102500.38;;;5.22;95.54
3206;BME280;1615;53.602;11.418;2023-11-22T04:13:01;102557.56;;;5.53;95.88
3206;BME280;1615;53.602;11.418;2023-11-22T04:15:27;102588.03;;;5.68;96.05
3206;BME280;1615;53.602;11.418;2023-11-22T04:17:52;102546.09;;;5.38;96.89
3206;BME280;1615;53.602;11.418;2023-11-22T04:20:19;102579.97;;;5.48;97.11
3206;BME280;1615;53.602;11.418;2023-11-22T04:22:45;102599.41;;;5.52;96.94
3206;BME280;1615;53.602;11.418;2023-11-22T04:25:10;102602.16;;;5.45;97.39
3206;BME280;1615;53.602;11.418;2023-11-22T04:27:38;102600.72;;;5.36;97.50
3206;BME280;1615;53.602;11.418;2023-11-22T04:30:06;102564.63;;;5.10;97.01
3206;BME280;1615;53.602;11.418;2023-11-22T04:32:36;102595.09;;;5.25;97.55
3206;BME280;1615;53.602;11.418;2023-11-22T04:35:02;102599.31;;;5.14;97.04
3206;BME280;1615;53.602;11.418;2023-11-22T04:37:30;102601.41;;;5.06;96.46
3206;BME280;1615;53.602;11.418;2023-11-22T04:39:57;102601.03;;;4.96;96.72
3206;BME280;1615;53.602;11.418;2023-11-22T04:42:22;102600.19;;;4.89;96.69
3206;BME280;1615;53.602;11.418;2023-11-22T04:44:47;102479.97;;;3.97;97.73
3206;BME280;1615;53.602;11.418;2023-11-22T04:47:13;102605.84;;;4.68;98.49
3206;BME280;1615;53.602;11.418;2023-11-22T04:49:38;102594.78;;;4.63;98.41
3206;BME280;1615;53.602;11.418;2023-11-22T04:52:04;102611.09;;;4.50;97.89
3206;BME280;1615;53.602;11.418;2023-11-22T04:54:29;102609.81;;;4.39;98.75
3206;BME280;1615;53.602;11.418;2023-11-22T04:56:54;102576.63;;;4.18;99.08
3206;BME280;1615;53.602;11.418;2023-11-22T04:59:20;102593.94;;;4.23;99.93
3206;BME280;1615;53.602;11.418;2023-11-22T05:01:46;102534.22;;;4.04;99.82
3206;BME280;1615;53.602;11.418;2023-11-22T05:04:11;102562.00;;;4.06;99.72
3206;BME280;1615;53.602;11.418;2023-11-22T05:06:36;102576.41;;;4.13;99.90
3206;BME280;1615;53.602;11.418;2023-11-22T05:09:02;102535.88;;;3.92;100.00
3206;BME280;1615;53.602;11.418;2023-11-22T05:11:27;102595.63;;;4.18;100.00
3206;BME280;1615;53.602;11.418;2023-11-22T05:13:53;102602.28;;;4.15;100.00
3206;BME280;1615;53.602;11.418;2023-11-22T05:16:18;102563.41;;;3.95;100.00
3206;BME280;1615;53.602;11.418;2023-11-22T05:18:43;102568.66;;;3.97;100.00
3206;BME280;1615;53.602;11.418;2023-11-22T05:21:09;102590.16;;;4.05;100.00
3206;BME280;1615;53.602;11.418;2023-11-22T05:23:34;102594.97;;;4.03;100.00
3206;BME280;1615;53.602;11.418;2023-11-22T05:26:02;102350.13;;;2.43;100.00
3206;BME280;1615;53.602;11.418;2023-11-22T05:28:30;102515.25;;;3.24;100.00
3206;BME280;1615;53.602;11.418;2023-11-22T05:30:56;102606.81;;;3.82;100.00
3206;BME280;1615;53.602;11.418;2023-11-22T05:33:21;102604.25;;;3.68;100.00
3206;BME280;1615;53.602;11.418;2023-11-22T05:35:47;102620.13;;;3.71;100.00
3206;BME280;1615;53.602;11.418;2023-11-22T05:38:13;102532.09;;;3.13;100.00
3206;BME280;1615;53.602;11.418;2023-11-22T05:40:39;102602.94;;;3.57;100.00
3206;BME280;1615;53.602;11.418;2023-11-22T05:43:04;102569.72;;;3.36;100.00
3206;BME280;1615;53.602;11.418;2023-11-22T05:45:30;102633.47;;;3.72;100.00
3206;BME280;1615;53.602;11.418;2023-11-22T05:47:55;102602.09;;;3.50;100.00
3206;BME280;1615;53.602;11.418;2023-11-22T05:50:20;102614.66;;;3.58;100.00
3206;BME280;1615;53.602;11.418;2023-11-22T05:52:46;102394.75;;;2.20;100.00
3206;BME280;1615;53.602;11.418;2023-11-22T05:55:11;102603.72;;;3.45;100.00
3206;BME280;1615;53.602;11.418;2023-11-22T05:57:40;102519.66;;;2.85;100.00
3206;BME280;1615;53.602;11.418;2023-11-22T06:00:06;102654.66;;;3.56;100.00
3206;BME280;1615;53.602;11.418;2023-11-22T06:02:31;102656.28;;;3.44;100.00
3206;BME280;1615;53.602;11.418;2023-11-22T06:04:57;102665.09;;;3.52;100.00
3206;BME280;1615;53.602;11.418;2023-11-22T06:07:22;102666.50;;;3.48;100.00
3206;BME280;1615;53.602;11.418;2023-11-22T06:09:47;102685.97;;;3.52;100.00
3206;BME280;1615;53.602;11.418;2023-11-22T06:12:14;102684.25;;;3.51;100.00
3206;BME280;1615;53.602;11.418;2023-11-22T06:14:39;102665.84;;;3.40;100.00
3206;BME280;1615;53.602;11.418;2023-11-22T06:17:04;102676.69;;;3.40;100.00
3206;BME280;1615;53.602;11.418;2023-11-22T06:19:30;102699.28;;;3.47;100.00
3206;BME280;1615;53.602;11.418;2023-11-22T06:21:56;102695.41;;;3.28;100.00
3206;BME280;1615;53.602;11.418;2023-11-22T06:24:21;102583.94;;;2.49;100.00
3206;BME280;1615;53.602;11.418;2023-11-22T06:26:46;102659.31;;;2.94;100.00
3206;BME280;1615;53.602;11.418;2023-11-22T06:29:12;102674.84;;;3.13;100.00
3206;BME280;1615;53.602;11.418;2023-11-22T06:31:38;102618.44;;;2.89;100.00
3206;BME280;1615;53.602;11.418;2023-11-22T06:34:03;102636.41;;;3.03;100.00
3206;BME280;1615;53.602;11.418;2023-11-22T06:36:29;102646.72;;;3.14;100.00
3206;BME280;1615;53.602;11.418;2023-11-22T06:38:55;102610.94;;;2.91;100.00
3206;BME280;1615;53.602;11.418;2023-11-22T06:41:20;102641.47;;;3.06;100.00
3206;BME280;1615;53.602;11.418;2023-11-22T06:43:47;102541.44;;;2.43;100.00
3206;BME280;1615;53.602;11.418;2023-11-22T06:46:12;102638.16;;;3.10;100.00
3206;BME280;1615;53.602;11.418;2023-11-22T06:48:38;102576.75;;;2.90;100.00
3206;BME280;1615;53.602;11.418;2023-11-22T06:51:03;102626.97;;;3.20;100.00
3206;BME280;1615;53.602;11.418;2023-11-22T06:53:28;102594.28;;;2.94;100.00
3206;BME280;1615;53.602;11.418;2023-11-22T06:55:54;102582.19;;;2.90;100.00
3206;BME280;1615;53.602;11.418;2023-11-22T06:58:19;102362.53;;;1.63;100.00
3206;BME280;1615;53.602;11.418;2023-11-22T07:00:44;102606.03;;;3.07;100.00
3206;BME280;1615;53.602;11.418;2023-11-22T07:03:10;102570.00;;;2.79;100.00
3206;BME280;1615;53.602;11.418;2023-11-22T07:05:36;102573.44;;;2.88;100.00
3206;BME280;1615;53.602;11.418;2023-11-22T07:08:02;102587.91;;;2.74;100.00
3206;BME280;1615;53.602;11.418;2023-11-22T07:10:28;102591.13;;;2.90;100.00
3206;BME280;1615;53.602;11.418;2023-11-22T07:12:54;102609.63;;;2.87;100.00
3206;BME280;1615;53.602;11.418;2023-11-22T07:15:19;102626.81;;;2.94;100.00
3206;BME280;1615;53.602;11.418;2023-11-22T07:17:44;102530.84;;;2.48;100.00
3206;BME280;1615;53.602;11.418;2023-11-22T07:20:10;102482.59;;;2.24;100.00
3206;BME280;1615;53.602;11.418;2023-11-22T07:22:41;102536.66;;;2.72;100.00
3206;BME280;1615;53.602;11.418;2023-11-22T07:25:08;102628.31;;;3.37;100.00
3206;BME280;1615;53.602;11.418;2023-11-22T07:27:46;102600.97;;;3.32;100.00
3206;BME280;1615;53.602;11.418;2023-11-22T07:30:13;102625.88;;;3.55;100.00
3206;BME280;1615;53.602;11.418;2023-11-22T07:32:39;102599.53;;;3.36;100.00
3206;BME280;1615;53.602;11.418;2023-11-22T07:35:06;102553.91;;;2.99;100.00
3206;BME280;1615;53.602;11.418;2023-11-22T07:37:33;102641.75;;;3.58;100.00
3206;BME280;1615;53.602;11.418;2023-11-22T07:39:59;102671.81;;;3.63;100.00
3206;BME280;1615;53.602;11.418;2023-11-22T07:42:26;102644.66;;;3.56;100.00
3206;BME280;1615;53.602;11.418;2023-11-22T07:44:51;102658.50;;;3.68;100.00
3206;BME280;1615;53.602;11.418;2023-11-22T07:47:22;102662.31;;;3.80;100.00
3206;BME280;1615;53.602;11.418;2023-11-22T07:49:48;102655.88;;;3.87;100.00
3206;BME280;1615;53.602;11.418;2023-11-22T07:52:13;102628.91;;;3.79;100.00
3206;BME280;1615;53.602;11.418;2023-11-22T07:54:40;102580.88;;;3.60;100.00
3206;BME280;1615;53.602;11.418;2023-11-22T07:57:06;102652.81;;;4.16;100.00
3206;BME280;1615;53.602;11.418;2023-11-22T07:59:32;102636.72;;;4.15;100.00
3206;BME280;1615;53.602;11.418;2023-11-22T08:01:58;102631.94;;;4.17;100.00
3206;BME280;1615;53.602;11.418;2023-11-22T08:04:23;102652.44;;;4.39;100.00
3206;BME280;1615;53.602;11.418;2023-11-22T08:06:50;102512.69;;;3.70;100.00
3206;BME280;1615;53.602;11.418;2023-11-22T08:09:16;102690.91;;;4.49;100.00
3206;BME280;1615;53.602;11.418;2023-11-22T08:11:42;102676.28;;;4.50;100.00
3206;BME280;1615;53.602;11.418;2023-11-22T08:14:07;102668.72;;;4.39;100.00
3206;BME280;1615;53.602;11.418;2023-11-22T08:16:33;102587.44;;;4.05;100.00
3206;BME280;1615;53.602;11.418;2023-11-22T08:19:03;102662.28;;;4.59;100.00
3206;BME280;1615;53.602;11.418;2023-11-22T08:21:30;102669.19;;;4.81;100.00
3206;BME280;1615;53.602;11.418;2023-11-22T08:23:55;102672.75;;;4.88;100.00
3206;BME280;1615;53.602;11.418;2023-11-22T08:26:21;102658.53;;;4.93;100.00
3206;BME280;1615;53.602;11.418;2023-11-22T08:28:46;102456.38;;;3.85;100.00
3206;BME280;1615;53.602;11.418;2023-11-22T08:31:11;102645.31;;;5.16;100.00
3206;BME280;1615;53.602;11.418;2023-11-22T08:33:37;102651.16;;;5.26;100.00
3206;BME280;1615;53.602;11.418;2023-11-22T08:36:04;102675.81;;;5.31;100.00
3206;BME280;1615;53.602;11.418;2023-11-22T08:38:30;102666.00;;;5.23;100.00
3206;BME280;1615;53.602;11.418;2023-11-22T08:41:05;102677.09;;;5.35;100.00
3206;BME280;1615;53.602;11.418;2023-11-22T08:43:36;102674.16;;;5.36;100.00
3206;BME280;1615;53.602;11.418;2023-11-22T08:46:02;102660.78;;;5.22;100.00
3206;BME280;1615;53.602;11.418;2023-11-22T08:48:32;102677.28;;;5.33;100.00
3206;BME280;1615;53.602;11.418;2023-11-22T08:50:57;102640.53;;;5.18;100.00
3206;BME280;1615;53.602;11.418;2023-11-22T08:53:23;102670.19;;;5.26;100.00
3206;BME280;1615;53.602;11.418;2023-11-22T08:55:49;102624.00;;;5.13;100.00
3206;BME280;1615;53.602;11.418;2023-11-22T08:58:14;102700.53;;;5.23;100.00
3206;BME280;1615;53.602;11.418;2023-11-22T09:00:40;102613.53;;;5.03;100.00
3206;BME280;1615;53.602;11.418;2023-11-22T09:03:07;102663.13;;;5.12;100.00
3206;BME280;1615;53.602;11.418;2023-11-22T09:05:32;102660.59;;;4.97;100.00
3206;BME280;1615;53.602;11.418;2023-11-22T09:07:58;102618.59;;;4.74;100.00
3206;BME280;1615;53.602;11.418;2023-11-22T09:10:26;102660.97;;;5.27;100.00
3206;BME280;1615;53.602;11.418;2023-11-22T09:12:52;102573.88;;;4.83;100.00
3206;BME280;1615;53.602;11.418;2023-11-22T09:15:17;102611.47;;;5.12;100.00
3206;BME280;1615;53.602;11.418;2023-11-22T09:17:48;102649.47;;;5.31;100.00
3206;BME280;1615;53.602;11.418;2023-11-22T09:20:17;102654.06;;;5.44;100.00
3206;BME280;1615;53.602;11.418;2023-11-22T09:22:47;102641.94;;;5.40;100.00
3206;BME280;1615;53.602;11.418;2023-11-22T09:25:14;102627.94;;;5.30;100.00
3206;BME280;1615;53.602;11.418;2023-11-22T09:27:42;102657.78;;;5.49;100.00
3206;BME280;1615;53.602;11.418;2023-11-22T09:30:08;102635.25;;;5.29;100.00
3206;BME280;1615;53.602;11.418;2023-11-22T09:32:43;102674.72;;;5.58;100.00
3206;BME280;1615;53.602;11.418;2023-11-22T09:35:08;102664.47;;;5.60;100.00
3206;BME280;1615;53.602;11.418;2023-11-22T09:37:34;102580.31;;;5.08;98.24
3206;BME280;1615;53.602;11.418;2023-11-22T09:40:00;102616.25;;;5.16;98.00
3206;BME280;1615;53.602;11.418;2023-11-22T09:42:26;102741.00;;;5.70;97.66
3206;BME280;1615;53.602;11.418;2023-11-22T09:44:52;102585.91;;;5.19;96.39
3206;BME280;1615;53.602;11.418;2023-11-22T09:47:18;102649.41;;;5.51;95.10
3206;BME280;1615;53.602;11.418;2023-11-22T09:49:46;102675.28;;;5.73;94.10
3206;BME280;1615;53.602;11.418;2023-11-22T09:52:16;102695.56;;;5.90;94.14
3206;BME280;1615;53.602;11.418;2023-11-22T09:54:45;102684.94;;;5.82;93.63
3206;BME280;1615;53.602;11.418;2023-11-22T09:57:11;102639.16;;;5.53;92.11
3206;BME280;1615;53.602;11.418;2023-11-22T09:59:39;102706.66;;;5.88;91.33
3206;BME280;1615;53.602;11.418;2023-11-22T10:02:05;102702.44;;;6.05;91.05
3206;BME280;1615;53.602;11.418;2023-11-22T10:04:31;102687.34;;;6.03;89.54
3206;BME280;1615;53.602;11.418;2023-11-22T10:06:57;102664.81;;;5.83;89.25
3206;BME280;1615;53.602;11.418;2023-11-22T10:09:24;102586.69;;;5.39;89.42
3206;BME280;1615;53.602;11.418;2023-11-22T10:11:49;102673.06;;;6.14;89.42
3206;BME280;1615;53.602;11.418;2023-11-22T10:14:24;102669.50;;;6.07;89.76
3206;BME280;1615;53.602;11.418;2023-11-22T10:17:00;102673.09;;;6.07;90.65
3206;BME280;1615;53.602;11.418;2023-11-22T10:19:27;102536.34;;;5.24;91.00
3206;BME280;1615;53.602;11.418;2023-11-22T10:22:03;102662.16;;;6.14;90.66
3206;BME280;1615;53.602;11.418;2023-11-22T10:24:33;102662.56;;;6.17;89.61
3206;BME280;1615;53.602;11.418;2023-11-22T10:27:02;102616.97;;;6.06;88.41
3206;BME280;1615;53.602;11.418;2023-11-22T10:29:28;102622.72;;;6.23;86.75
3206;BME280;1615;53.602;11.418;2023-11-22T10:31:53;102576.72;;;6.08;85.71
3206;BME280;1615;53.602;11.418;2023-11-22T10:34:21;102629.78;;;6.61;83.15
3206;BME280;1615;53.602;11.418;2023-11-22T10:36:47;102631.22;;;6.64;81.73
3206;BME280;1615;53.602;11.418;2023-11-22T10:39:12;102635.44;;;6.60;79.46
3206;BME280;1615;53.602;11.418;2023-11-22T10:41:41;102619.09;;;6.60;78.72
3206;BME280;1615;53.602;11.418;2023-11-22T10:44:09;102617.88;;;6.56;76.57
3206;BME280;1615;53.602;11.418;2023-11-22T10:46:34;102585.44;;;6.48;76.99
3206;BME280;1615;53.602;11.418;2023-11-22T10:49:00;102611.88;;;6.72;75.86
3206;BME280;1615;53.602;11.418;2023-11-22T10:51:31;102581.31;;;6.63;74.25
3206;BME280;1615;53.602;11.418;2023-11-22T10:53:58;102570.44;;;6.63;73.34
3206;BME280;1615;53.602;11.418;2023-11-22T10:56:28;102577.94;;;6.68;72.94
3206;BME280;1615;53.602;11.418;2023-11-22T10:58:57;102608.81;;;6.86;71.25
3206;BME280;1615;53.602;11.418;2023-11-22T11:01:26;102566.66;;;6.64;70.28
3206;BME280;1615;53.602;11.418;2023-11-22T11:06:34;102600.22;;;6.58;66.91
3206;BME280;1615;53.602;11.418;2023-11-22T11:09:04;102591.66;;;6.79;65.69
3206;BME280;1615;53.602;11.418;2023-11-22T11:11:32;102570.69;;;6.80;65.76
3206;BME280;1615;53.602;11.418;2023-11-22T11:13:58;102623.25;;;6.87;66.70
3206;BME280;1615;53.602;11.418;2023-11-22T11:16:25;102541.88;;;6.66;65.93
3206;BME280;1615;53.602;11.418;2023-11-22T11:18:50;102568.06;;;6.91;65.58
3206;BME280;1615;53.602;11.418;2023-11-22T11:21:16;102539.28;;;6.77;65.14
3206;BME280;1615;53.602;11.418;2023-11-22T11:23:41;102471.34;;;6.40;64.75
3206;BME280;1615;53.602;11.418;2023-11-22T11:26:19;102506.47;;;6.66;64.04
3206;BME280;1615;53.602;11.418;2023-11-22T11:28:47;102448.75;;;6.33;63.72
3206;BME280;1615;53.602;11.418;2023-11-22T11:31:13;102524.97;;;6.82;63.34
3206;BME280;1615;53.602;11.418;2023-11-22T11:36:24;102486.72;;;6.88;63.79
3206;BME280;1615;53.602;11.418;2023-11-22T11:38:51;102459.16;;;6.78;63.67
3206;BME280;1615;53.602;11.418;2023-11-22T11:41:16;102463.69;;;6.84;64.07
3206;BME280;1615;53.602;11.418;2023-11-22T11:43:48;102466.69;;;6.83;63.95
3206;BME280;1615;53.602;11.418;2023-11-22T11:46:15;102414.41;;;6.50;63.76
3206;BME280;1615;53.602;11.418;2023-11-22T11:48:45;102430.63;;;6.63;63.84
3206;BME280;1615;53.602;11.418;2023-11-22T11:51:16;102335.81;;;6.17;64.27
3206;BME280;1615;53.602;11.418;2023-11-22T11:53:42;102412.97;;;6.47;63.92
3206;BME280;1615;53.602;11.418;2023-11-22T11:56:08;102464.56;;;6.67;64.08
3206;BME280;1615;53.602;11.418;2023-11-22T11:58:34;102433.63;;;6.55;64.92
3206;BME280;1615;53.602;11.418;2023-11-22T12:00:59;102474.63;;;6.66;65.25
3206;BME280;1615;53.602;11.418;2023-11-22T12:03:25;102449.22;;;6.48;64.93
3206;BME280;1615;53.602;11.418;2023-11-22T12:05:50;102462.88;;;6.66;65.34
3206;BME280;1615;53.602;11.418;2023-11-22T12:08:16;102465.16;;;6.69;65.40
3206;BME280;1615;53.602;11.418;2023-11-22T12:10:43;102474.63;;;6.66;65.92
3206;BME280;1615;53.602;11.418;2023-11-22T12:13:08;102458.03;;;6.68;66.21
3206;BME280;1615;53.602;11.418;2023-11-22T12:15:34;102478.03;;;6.80;65.81
3206;BME280;1615;53.602;11.418;2023-11-22T12:18:01;102443.03;;;6.59;65.00
3206;BME280;1615;53.602;11.418;2023-11-22T12:20:26;102424.44;;;6.74;64.66
3206;BME280;1615;53.602;11.418;2023-11-22T12:23:00;102444.34;;;6.92;64.34
3206;BME280;1615;53.602;11.418;2023-11-22T12:25:29;102478.63;;;7.00;63.92
3206;BME280;1615;53.602;11.418;2023-11-22T12:27:54;102337.41;;;6.25;64.10
3206;BME280;1615;53.602;11.418;2023-11-22T12:30:34;102452.34;;;6.87;64.27
3206;BME280;1615;53.602;11.418;2023-11-22T12:33:06;102358.72;;;6.28;63.71
3206;BME280;1615;53.602;11.418;2023-11-22T12:35:35;102416.84;;;6.58;64.31
3206;BME280;1615;53.602;11.418;2023-11-22T12:38:02;102422.47;;;6.63;63.23
3206;BME280;1615;53.602;11.418;2023-11-22T12:40:29;102372.56;;;6.26;63.69
3206;BME280;1615;53.602;11.418;2023-11-22T12:42:59;102402.75;;;6.61;64.61
3206;BME280;1615;53.602;11.418;2023-11-22T12:45:26;102394.50;;;6.67;64.53
3206;BME280;1615;53.602;11.418;2023-11-22T12:47:54;102395.50;;;6.73;64.62
3206;BME280;1615;53.602;11.418;2023-11-22T12:50:37;102381.19;;;6.77;64.98
3206;BME280;1615;53.602;11.418;2023-11-22T12:53:13;102383.41;;;6.69;64.37
3206;BME280;1615;53.602;11.418;2023-11-22T12:55:46;102389.75;;;6.63;64.80
3206;BME280;1615;53.602;11.418;2023-11-22T12:58:12;102306.38;;;6.26;64.96
3206;BME280;1615;53.602;11.418;2023-11-22T13:00:40;102361.44;;;6.64;64.65
3206;BME280;1615;53.602;11.418;2023-11-22T13:03:09;102364.16;;;6.64;65.71
3206;BME280;1615;53.602;11.418;2023-11-22T13:05:39;102329.69;;;6.40;66.36
3206;BME280;1615;53.602;11.418;2023-11-22T13:08:05;102361.78;;;6.56;67.17